Terminal Aerodrome Forecast
Issued by NWS

Home | Current Version | Previous Version | Text Only | Print | Product List | Glossary Off
Versions: 1 2 3 4 5 6 7 8 9 10 11 12 13 14 15 16 17 18 19 20 21 22

000
FTUS43 KICT 231952 AAA
TAFCNU
TAF AMD
KCNU 231952Z 2320/2418 26008KT P6SM -RADZ SCT008 BKN015
     FM232100 34011KT P6SM -RADZ SCT015 OVC025
     FM240000 33024G33KT P6SM -RA SCT015 OVC025
     FM240500 31017G24KT P6SM SCT060 BKN100
     FM240900 29014KT P6SM BKN040=

USA.gov is the U.S. government's official web portal to all federal, state and local government web resources and services.